Aviation Digital Data Service (ADDS)

Output produced by METARs form (0221 UTC 15 August 2020)
found at http://www.aviationweather.gov/metar/data/
 
Forecast for: WMKI (IPOH , MY)
Text: TAF WMKI 142300Z 1500/1600 04005KT 9999 FEW019
Forecast period: 0000 UTC 15 August 2020 to 0000 UTC 16 August 2020
Forecast type: FROM: standard forecast or significant change
Winds: from the NE (40 degrees) at 6 MPH (5 knots; 2.6 m/s)
Visibility: 6 or more miles (10+ km)
Ceiling: at least 12,000 feet AGL
Clouds: few clouds at 1900 feet AGL
Weather: no significant weather forecast for this period
Text: TEMPO 1507/1512 5000 TSRA FEW017CB
Forecast period: 0700 to 1200 UTC 15 August 2020
Forecast type: TEMPORARY: The following changes expected for less than half the time period
Visibility: 3 miles (5 km)
Ceiling: at least 12,000 feet AGL
Clouds: few clouds at 1700 feet AGL
Weather: TSRA  (rain associated with thunderstorm(s))